sensor_id;sensor_type;location;lat;lon;timestamp;P1;durP1;ratioP1;P2;durP2;ratioP2
6095;SDS011;25081;42.698;23.298;2023-03-19T00:00:09;31.17;;;18.10;;
6095;SDS011;25081;42.698;23.298;2023-03-19T00:02:20;30.02;;;18.45;;
6095;SDS011;25081;42.698;23.298;2023-03-19T00:04:31;32.90;;;19.40;;
6095;SDS011;25081;42.698;23.298;2023-03-19T00:06:41;28.55;;;18.85;;
6095;SDS011;25081;42.698;23.298;2023-03-19T00:08:52;34.92;;;19.40;;
6095;SDS011;25081;42.698;23.298;2023-03-19T00:11:05;30.27;;;17.77;;
6095;SDS011;25081;42.698;23.298;2023-03-19T00:13:16;29.70;;;18.00;;
6095;SDS011;25081;42.698;23.298;2023-03-19T00:15:26;28.35;;;15.45;;
6095;SDS011;25081;42.698;23.298;2023-03-19T00:17:37;29.42;;;16.57;;
6095;SDS011;25081;42.698;23.298;2023-03-19T00:19:47;30.32;;;15.98;;
6095;SDS011;25081;42.698;23.298;2023-03-19T00:21:58;31.37;;;15.90;;
6095;SDS011;25081;42.698;23.298;2023-03-19T00:24:08;22.25;;;14.03;;
6095;SDS011;25081;42.698;23.298;2023-03-19T00:26:19;31.82;;;16.62;;
6095;SDS011;25081;42.698;23.298;2023-03-19T00:28:29;27.25;;;14.80;;
6095;SDS011;25081;42.698;23.298;2023-03-19T00:30:40;23.10;;;13.88;;
6095;SDS011;25081;42.698;23.298;2023-03-19T00:32:50;26.82;;;14.87;;
6095;SDS011;25081;42.698;23.298;2023-03-19T00:35:01;24.95;;;14.95;;
6095;SDS011;25081;42.698;23.298;2023-03-19T00:37:11;23.22;;;14.70;;
6095;SDS011;25081;42.698;23.298;2023-03-19T00:39:22;29.35;;;15.03;;
6095;SDS011;25081;42.698;23.298;2023-03-19T00:41:32;25.55;;;14.05;;
6095;SDS011;25081;42.698;23.298;2023-03-19T00:43:43;22.40;;;12.78;;
6095;SDS011;25081;42.698;23.298;2023-03-19T00:45:53;20.55;;;12.85;;
6095;SDS011;25081;42.698;23.298;2023-03-19T00:48:05;25.57;;;13.83;;
6095;SDS011;25081;42.698;23.298;2023-03-19T00:50:16;23.65;;;14.28;;
6095;SDS011;25081;42.698;23.298;2023-03-19T00:52:26;19.85;;;11.93;;
6095;SDS011;25081;42.698;23.298;2023-03-19T00:54:37;20.70;;;11.57;;
6095;SDS011;25081;42.698;23.298;2023-03-19T00:56:47;18.65;;;11.00;;
6095;SDS011;25081;42.698;23.298;2023-03-19T00:58:58;16.70;;;10.65;;
6095;SDS011;25081;42.698;23.298;2023-03-19T01:01:08;22.95;;;12.20;;
6095;SDS011;25081;42.698;23.298;2023-03-19T01:03:19;16.42;;;10.75;;
6095;SDS011;25081;42.698;23.298;2023-03-19T01:05:29;16.87;;;10.55;;
6095;SDS011;25081;42.698;23.298;2023-03-19T01:07:40;18.40;;;11.10;;
6095;SDS011;25081;42.698;23.298;2023-03-19T01:09:50;19.80;;;11.55;;
6095;SDS011;25081;42.698;23.298;2023-03-19T01:12:01;22.37;;;13.10;;
6095;SDS011;25081;42.698;23.298;2023-03-19T01:14:11;20.43;;;11.60;;
6095;SDS011;25081;42.698;23.298;2023-03-19T01:16:22;18.07;;;11.33;;
6095;SDS011;25081;42.698;23.298;2023-03-19T01:18:32;21.00;;;11.83;;
6095;SDS011;25081;42.698;23.298;2023-03-19T01:20:43;22.93;;;11.78;;
6095;SDS011;25081;42.698;23.298;2023-03-19T01:22:54;19.40;;;11.55;;
6095;SDS011;25081;42.698;23.298;2023-03-19T01:25:06;18.30;;;11.00;;
6095;SDS011;25081;42.698;23.298;2023-03-19T01:27:16;18.02;;;10.82;;
6095;SDS011;25081;42.698;23.298;2023-03-19T01:29:28;21.55;;;11.93;;
6095;SDS011;25081;42.698;23.298;2023-03-19T01:31:38;29.07;;;14.60;;
6095;SDS011;25081;42.698;23.298;2023-03-19T01:33:49;24.63;;;13.20;;
6095;SDS011;25081;42.698;23.298;2023-03-19T01:35:59;28.07;;;13.72;;
6095;SDS011;25081;42.698;23.298;2023-03-19T01:38:10;25.43;;;15.38;;
6095;SDS011;25081;42.698;23.298;2023-03-19T01:40:20;30.40;;;18.12;;
6095;SDS011;25081;42.698;23.298;2023-03-19T01:42:31;31.02;;;18.90;;
6095;SDS011;25081;42.698;23.298;2023-03-19T01:44:41;35.33;;;18.30;;
6095;SDS011;25081;42.698;23.298;2023-03-19T01:46:52;28.83;;;17.32;;
6095;SDS011;25081;42.698;23.298;2023-03-19T01:49:04;28.42;;;18.00;;
6095;SDS011;25081;42.698;23.298;2023-03-19T01:51:14;34.95;;;19.37;;
6095;SDS011;25081;42.698;23.298;2023-03-19T01:53:25;31.48;;;18.35;;
6095;SDS011;25081;42.698;23.298;2023-03-19T01:55:35;31.75;;;19.42;;
6095;SDS011;25081;42.698;23.298;2023-03-19T01:57:45;27.10;;;18.02;;
6095;SDS011;25081;42.698;23.298;2023-03-19T01:59:56;34.38;;;19.95;;
6095;SDS011;25081;42.698;23.298;2023-03-19T02:02:07;28.65;;;17.70;;
6095;SDS011;25081;42.698;23.298;2023-03-19T02:04:17;43.80;;;19.95;;
6095;SDS011;25081;42.698;23.298;2023-03-19T02:06:27;29.82;;;19.30;;
6095;SDS011;25081;42.698;23.298;2023-03-19T02:08:38;29.37;;;17.87;;
6095;SDS011;25081;42.698;23.298;2023-03-19T02:10:48;29.02;;;19.02;;
6095;SDS011;25081;42.698;23.298;2023-03-19T02:12:59;31.20;;;19.87;;
6095;SDS011;25081;42.698;23.298;2023-03-19T02:15:10;33.45;;;19.65;;
6095;SDS011;25081;42.698;23.298;2023-03-19T02:17:20;34.05;;;19.50;;
6095;SDS011;25081;42.698;23.298;2023-03-19T02:19:33;34.53;;;20.10;;
6095;SDS011;25081;42.698;23.298;2023-03-19T02:21:42;31.82;;;17.75;;
6095;SDS011;25081;42.698;23.298;2023-03-19T02:23:54;32.05;;;17.75;;
6095;SDS011;25081;42.698;23.298;2023-03-19T02:26:05;32.25;;;18.95;;
6095;SDS011;25081;42.698;23.298;2023-03-19T02:28:16;36.60;;;18.65;;
6095;SDS011;25081;42.698;23.298;2023-03-19T02:30:27;28.80;;;18.40;;
6095;SDS011;25081;42.698;23.298;2023-03-19T02:32:37;31.52;;;19.05;;
6095;SDS011;25081;42.698;23.298;2023-03-19T02:34:47;32.78;;;18.98;;
6095;SDS011;25081;42.698;23.298;2023-03-19T02:36:58;39.13;;;22.00;;
6095;SDS011;25081;42.698;23.298;2023-03-19T02:39:12;36.53;;;20.12;;
6095;SDS011;25081;42.698;23.298;2023-03-19T02:41:19;35.60;;;21.10;;
6095;SDS011;25081;42.698;23.298;2023-03-19T02:43:30;38.17;;;20.08;;
6095;SDS011;25081;42.698;23.298;2023-03-19T02:45:41;38.98;;;20.17;;
6095;SDS011;25081;42.698;23.298;2023-03-19T02:47:51;33.80;;;19.62;;
6095;SDS011;25081;42.698;23.298;2023-03-19T02:50:02;36.55;;;22.35;;
6095;SDS011;25081;42.698;23.298;2023-03-19T02:52:13;44.85;;;24.95;;
6095;SDS011;25081;42.698;23.298;2023-03-19T02:54:23;41.60;;;22.82;;
6095;SDS011;25081;42.698;23.298;2023-03-19T02:56:34;34.43;;;21.00;;
6095;SDS011;25081;42.698;23.298;2023-03-19T02:58:44;36.95;;;22.27;;
6095;SDS011;25081;42.698;23.298;2023-03-19T03:00:55;30.62;;;20.85;;
6095;SDS011;25081;42.698;23.298;2023-03-19T03:03:05;33.28;;;21.75;;
6095;SDS011;25081;42.698;23.298;2023-03-19T03:05:16;32.90;;;20.30;;
6095;SDS011;25081;42.698;23.298;2023-03-19T03:07:27;39.95;;;21.40;;
6095;SDS011;25081;42.698;23.298;2023-03-19T03:09:37;29.35;;;17.27;;
6095;SDS011;25081;42.698;23.298;2023-03-19T03:11:47;28.07;;;18.20;;
6095;SDS011;25081;42.698;23.298;2023-03-19T03:13:58;33.75;;;18.77;;
6095;SDS011;25081;42.698;23.298;2023-03-19T03:16:08;30.75;;;17.80;;
6095;SDS011;25081;42.698;23.298;2023-03-19T03:18:19;31.70;;;19.45;;
6095;SDS011;25081;42.698;23.298;2023-03-19T03:20:30;37.90;;;18.75;;
6095;SDS011;25081;42.698;23.298;2023-03-19T03:22:41;29.80;;;18.52;;
6095;SDS011;25081;42.698;23.298;2023-03-19T03:24:51;29.55;;;18.60;;
6095;SDS011;25081;42.698;23.298;2023-03-19T03:27:02;29.87;;;17.77;;
6095;SDS011;25081;42.698;23.298;2023-03-19T03:29:12;26.45;;;15.63;;
6095;SDS011;25081;42.698;23.298;2023-03-19T03:31:23;22.90;;;13.95;;
6095;SDS011;25081;42.698;23.298;2023-03-19T03:33:33;25.30;;;15.13;;
6095;SDS011;25081;42.698;23.298;2023-03-19T03:35:44;24.47;;;14.23;;
6095;SDS011;25081;42.698;23.298;2023-03-19T03:37:54;26.50;;;13.75;;
6095;SDS011;25081;42.698;23.298;2023-03-19T03:40:07;22.52;;;13.48;;
6095;SDS011;25081;42.698;23.298;2023-03-19T03:42:18;22.02;;;13.88;;
6095;SDS011;25081;42.698;23.298;2023-03-19T03:44:29;22.52;;;12.98;;
6095;SDS011;25081;42.698;23.298;2023-03-19T03:46:39;20.35;;;13.85;;
6095;SDS011;25081;42.698;23.298;2023-03-19T03:48:50;23.05;;;12.10;;
6095;SDS011;25081;42.698;23.298;2023-03-19T03:51:00;22.32;;;12.60;;
6095;SDS011;25081;42.698;23.298;2023-03-19T03:53:11;17.12;;;12.65;;
6095;SDS011;25081;42.698;23.298;2023-03-19T03:55:21;20.85;;;13.22;;
6095;SDS011;25081;42.698;23.298;2023-03-19T03:57:32;19.42;;;11.50;;
6095;SDS011;25081;42.698;23.298;2023-03-19T03:59:42;19.48;;;12.47;;
6095;SDS011;25081;42.698;23.298;2023-03-19T04:01:53;17.70;;;10.35;;
6095;SDS011;25081;42.698;23.298;2023-03-19T04:04:03;21.77;;;10.60;;
6095;SDS011;25081;42.698;23.298;2023-03-19T04:06:14;19.12;;;12.03;;
6095;SDS011;25081;42.698;23.298;2023-03-19T04:08:25;16.45;;;10.90;;
6095;SDS011;25081;42.698;23.298;2023-03-19T04:10:37;18.02;;;11.50;;
6095;SDS011;25081;42.698;23.298;2023-03-19T04:12:48;15.88;;;10.43;;
6095;SDS011;25081;42.698;23.298;2023-03-19T04:14:58;16.62;;;10.78;;
6095;SDS011;25081;42.698;23.298;2023-03-19T04:17:09;21.68;;;12.23;;
6095;SDS011;25081;42.698;23.298;2023-03-19T04:19:20;19.77;;;12.55;;
6095;SDS011;25081;42.698;23.298;2023-03-19T04:21:30;20.48;;;10.90;;
6095;SDS011;25081;42.698;23.298;2023-03-19T04:23:41;22.22;;;12.15;;
6095;SDS011;25081;42.698;23.298;2023-03-19T04:25:51;19.67;;;11.05;;
6095;SDS011;25081;42.698;23.298;2023-03-19T04:28:02;20.02;;;13.25;;
6095;SDS011;25081;42.698;23.298;2023-03-19T04:30:13;24.40;;;12.37;;
6095;SDS011;25081;42.698;23.298;2023-03-19T04:32:24;24.67;;;13.58;;
6095;SDS011;25081;42.698;23.298;2023-03-19T04:34:34;27.90;;;13.58;;
6095;SDS011;25081;42.698;23.298;2023-03-19T04:36:45;34.83;;;14.35;;
6095;SDS011;25081;42.698;23.298;2023-03-19T04:38:55;26.40;;;14.05;;
6095;SDS011;25081;42.698;23.298;2023-03-19T04:41:06;27.45;;;14.98;;
6095;SDS011;25081;42.698;23.298;2023-03-19T04:43:16;21.85;;;13.25;;
6095;SDS011;25081;42.698;23.298;2023-03-19T04:45:27;26.68;;;15.30;;
6095;SDS011;25081;42.698;23.298;2023-03-19T04:47:38;22.75;;;14.68;;
6095;SDS011;25081;42.698;23.298;2023-03-19T04:49:48;29.05;;;17.73;;
6095;SDS011;25081;42.698;23.298;2023-03-19T04:51:58;31.70;;;18.65;;
6095;SDS011;25081;42.698;23.298;2023-03-19T04:54:09;25.15;;;16.10;;
6095;SDS011;25081;42.698;23.298;2023-03-19T04:56:22;32.88;;;17.80;;
6095;SDS011;25081;42.698;23.298;2023-03-19T04:58:33;29.02;;;16.25;;
6095;SDS011;25081;42.698;23.298;2023-03-19T05:00:43;33.73;;;15.90;;
6095;SDS011;25081;42.698;23.298;2023-03-19T05:02:54;41.92;;;20.52;;
6095;SDS011;25081;42.698;23.298;2023-03-19T05:05:05;48.87;;;23.32;;
6095;SDS011;25081;42.698;23.298;2023-03-19T05:07:16;85.85;;;31.07;;
6095;SDS011;25081;42.698;23.298;2023-03-19T05:09:27;94.32;;;35.10;;
6095;SDS011;25081;42.698;23.298;2023-03-19T05:11:38;133.10;;;42.67;;
6095;SDS011;25081;42.698;23.298;2023-03-19T05:13:48;75.00;;;31.60;;
6095;SDS011;25081;42.698;23.298;2023-03-19T05:15:59;90.87;;;36.10;;
6095;SDS011;25081;42.698;23.298;2023-03-19T05:18:09;156.40;;;51.15;;
6095;SDS011;25081;42.698;23.298;2023-03-19T05:20:20;175.40;;;56.15;;
6095;SDS011;25081;42.698;23.298;2023-03-19T05:22:30;122.20;;;41.68;;
6095;SDS011;25081;42.698;23.298;2023-03-19T05:24:41;117.33;;;43.38;;
6095;SDS011;25081;42.698;23.298;2023-03-19T05:26:51;128.45;;;47.85;;
6095;SDS011;25081;42.698;23.298;2023-03-19T05:29:01;114.80;;;42.55;;
6095;SDS011;25081;42.698;23.298;2023-03-19T05:31:12;106.80;;;39.83;;
6095;SDS011;25081;42.698;23.298;2023-03-19T05:33:23;98.27;;;36.75;;
6095;SDS011;25081;42.698;23.298;2023-03-19T05:35:33;73.20;;;30.35;;
6095;SDS011;25081;42.698;23.298;2023-03-19T05:37:43;97.78;;;33.88;;
6095;SDS011;25081;42.698;23.298;2023-03-19T05:39:54;59.00;;;28.42;;
6095;SDS011;25081;42.698;23.298;2023-03-19T05:42:05;64.42;;;25.90;;
6095;SDS011;25081;42.698;23.298;2023-03-19T05:44:16;40.73;;;19.45;;
6095;SDS011;25081;42.698;23.298;2023-03-19T05:46:26;26.93;;;15.80;;
6095;SDS011;25081;42.698;23.298;2023-03-19T05:48:37;23.52;;;14.43;;
6095;SDS011;25081;42.698;23.298;2023-03-19T05:50:47;25.35;;;15.35;;
6095;SDS011;25081;42.698;23.298;2023-03-19T05:52:59;22.48;;;13.80;;
6095;SDS011;25081;42.698;23.298;2023-03-19T05:55:09;25.10;;;14.33;;
6095;SDS011;25081;42.698;23.298;2023-03-19T05:57:19;23.90;;;15.78;;
6095;SDS011;25081;42.698;23.298;2023-03-19T05:59:30;29.65;;;18.55;;
6095;SDS011;25081;42.698;23.298;2023-03-19T06:01:40;35.75;;;21.60;;
6095;SDS011;25081;42.698;23.298;2023-03-19T06:03:51;28.75;;;19.00;;
6095;SDS011;25081;42.698;23.298;2023-03-19T06:06:01;33.00;;;20.35;;
6095;SDS011;25081;42.698;23.298;2023-03-19T06:08:12;34.95;;;22.27;;
6095;SDS011;25081;42.698;23.298;2023-03-19T06:10:22;34.23;;;23.67;;
6095;SDS011;25081;42.698;23.298;2023-03-19T06:12:33;43.38;;;23.42;;
6095;SDS011;25081;42.698;23.298;2023-03-19T06:14:44;39.60;;;24.02;;
6095;SDS011;25081;42.698;23.298;2023-03-19T06:16:54;40.00;;;24.05;;
6095;SDS011;25081;42.698;23.298;2023-03-19T06:19:05;37.35;;;24.45;;
6095;SDS011;25081;42.698;23.298;2023-03-19T06:21:15;37.73;;;24.00;;
6095;SDS011;25081;42.698;23.298;2023-03-19T06:23:29;38.83;;;27.37;;
6095;SDS011;25081;42.698;23.298;2023-03-19T06:25:39;40.10;;;25.20;;
6095;SDS011;25081;42.698;23.298;2023-03-19T06:27:50;42.33;;;26.00;;
6095;SDS011;25081;42.698;23.298;2023-03-19T06:30:00;44.25;;;26.25;;
6095;SDS011;25081;42.698;23.298;2023-03-19T06:32:11;38.10;;;25.50;;
6095;SDS011;25081;42.698;23.298;2023-03-19T06:34:22;35.50;;;23.35;;
6095;SDS011;25081;42.698;23.298;2023-03-19T06:36:33;45.17;;;24.80;;
6095;SDS011;25081;42.698;23.298;2023-03-19T06:38:43;36.28;;;21.48;;
6095;SDS011;25081;42.698;23.298;2023-03-19T06:40:54;32.50;;;22.87;;
6095;SDS011;25081;42.698;23.298;2023-03-19T06:43:04;31.10;;;21.45;;
6095;SDS011;25081;42.698;23.298;2023-03-19T06:45:15;32.15;;;22.37;;
6095;SDS011;25081;42.698;23.298;2023-03-19T06:47:25;32.98;;;19.75;;
6095;SDS011;25081;42.698;23.298;2023-03-19T06:49:36;29.35;;;18.52;;
6095;SDS011;25081;42.698;23.298;2023-03-19T06:51:46;27.52;;;18.67;;
6095;SDS011;25081;42.698;23.298;2023-03-19T06:53:57;29.80;;;19.00;;
6095;SDS011;25081;42.698;23.298;2023-03-19T06:56:07;26.70;;;16.80;;
6095;SDS011;25081;42.698;23.298;2023-03-19T06:58:18;25.85;;;18.45;;
6095;SDS011;25081;42.698;23.298;2023-03-19T07:00:28;27.22;;;17.37;;
6095;SDS011;25081;42.698;23.298;2023-03-19T07:02:39;27.22;;;16.07;;
6095;SDS011;25081;42.698;23.298;2023-03-19T07:04:49;24.40;;;16.60;;
6095;SDS011;25081;42.698;23.298;2023-03-19T07:07:00;21.30;;;15.70;;
6095;SDS011;25081;42.698;23.298;2023-03-19T07:09:10;23.10;;;15.80;;
6095;SDS011;25081;42.698;23.298;2023-03-19T07:11:21;19.93;;;14.80;;
6095;SDS011;25081;42.698;23.298;2023-03-19T07:13:31;17.40;;;13.67;;
6095;SDS011;25081;42.698;23.298;2023-03-19T07:15:42;20.50;;;15.50;;
6095;SDS011;25081;42.698;23.298;2023-03-19T07:17:52;22.77;;;16.13;;
6095;SDS011;25081;42.698;23.298;2023-03-19T07:20:03;20.63;;;16.70;;
6095;SDS011;25081;42.698;23.298;2023-03-19T07:22:14;22.80;;;15.60;;
6095;SDS011;25081;42.698;23.298;2023-03-19T07:24:25;18.80;;;16.40;;
6095;SDS011;25081;42.698;23.298;2023-03-19T07:26:35;22.20;;;16.47;;
6095;SDS011;25081;42.698;23.298;2023-03-19T07:28:46;21.70;;;14.60;;
6095;SDS011;25081;42.698;23.298;2023-03-19T07:30:56;20.33;;;15.70;;
6095;SDS011;25081;42.698;23.298;2023-03-19T07:33:07;17.97;;;14.93;;
6095;SDS011;25081;42.698;23.298;2023-03-19T07:35:17;18.63;;;14.10;;
6095;SDS011;25081;42.698;23.298;2023-03-19T07:37:28;19.80;;;14.10;;
6095;SDS011;25081;42.698;23.298;2023-03-19T07:39:38;19.30;;;12.93;;
6095;SDS011;25081;42.698;23.298;2023-03-19T07:41:49;16.27;;;13.57;;
6095;SDS011;25081;42.698;23.298;2023-03-19T07:43:59;16.37;;;13.37;;
6095;SDS011;25081;42.698;23.298;2023-03-19T07:46:10;18.90;;;13.50;;
6095;SDS011;25081;42.698;23.298;2023-03-19T07:48:20;17.60;;;13.30;;
6095;SDS011;25081;42.698;23.298;2023-03-19T07:50:31;15.07;;;12.63;;
6095;SDS011;25081;42.698;23.298;2023-03-19T07:52:43;15.10;;;12.67;;
6095;SDS011;25081;42.698;23.298;2023-03-19T07:54:52;12.93;;;11.60;;
6095;SDS011;25081;42.698;23.298;2023-03-19T07:57:02;12.70;;;11.37;;
6095;SDS011;25081;42.698;23.298;2023-03-19T07:59:13;16.00;;;12.30;;
6095;SDS011;25081;42.698;23.298;2023-03-19T08:01:23;14.63;;;12.53;;
6095;SDS011;25081;42.698;23.298;2023-03-19T08:03:34;15.50;;;13.20;;
6095;SDS011;25081;42.698;23.298;2023-03-19T08:05:46;16.57;;;12.20;;
6095;SDS011;25081;42.698;23.298;2023-03-19T08:07:57;13.23;;;11.67;;
6095;SDS011;25081;42.698;23.298;2023-03-19T08:10:08;16.87;;;12.43;;
6095;SDS011;25081;42.698;23.298;2023-03-19T08:12:20;18.17;;;12.37;;
6095;SDS011;25081;42.698;23.298;2023-03-19T08:14:30;15.23;;;11.13;;
6095;SDS011;25081;42.698;23.298;2023-03-19T08:16:41;11.70;;;10.30;;
6095;SDS011;25081;42.698;23.298;2023-03-19T08:18:51;13.27;;;10.57;;
6095;SDS011;25081;42.698;23.298;2023-03-19T08:21:02;18.63;;;11.83;;
6095;SDS011;25081;42.698;23.298;2023-03-19T08:23:13;13.87;;;11.37;;
6095;SDS011;25081;42.698;23.298;2023-03-19T08:25:23;18.77;;;11.87;;
6095;SDS011;25081;42.698;23.298;2023-03-19T08:27:34;12.83;;;10.27;;
6095;SDS011;25081;42.698;23.298;2023-03-19T08:29:44;14.63;;;10.50;;
6095;SDS011;25081;42.698;23.298;2023-03-19T08:31:55;18.10;;;10.90;;
6095;SDS011;25081;42.698;23.298;2023-03-19T08:34:05;18.03;;;12.43;;
6095;SDS011;25081;42.698;23.298;2023-03-19T08:36:17;18.03;;;11.50;;
6095;SDS011;25081;42.698;23.298;2023-03-19T08:38:27;15.70;;;11.77;;
6095;SDS011;25081;42.698;23.298;2023-03-19T08:40:38;15.00;;;10.50;;
6095;SDS011;25081;42.698;23.298;2023-03-19T08:42:48;14.97;;;10.63;;
6095;SDS011;25081;42.698;23.298;2023-03-19T08:44:59;13.60;;;10.70;;
6095;SDS011;25081;42.698;23.298;2023-03-19T08:47:09;12.17;;;10.73;;
6095;SDS011;25081;42.698;23.298;2023-03-19T08:49:20;15.37;;;11.40;;
6095;SDS011;25081;42.698;23.298;2023-03-19T08:51:30;12.37;;;10.40;;
6095;SDS011;25081;42.698;23.298;2023-03-19T08:53:41;15.03;;;11.53;;
6095;SDS011;25081;42.698;23.298;2023-03-19T08:55:52;15.87;;;10.60;;
6095;SDS011;25081;42.698;23.298;2023-03-19T08:58:02;12.23;;;11.00;;
6095;SDS011;25081;42.698;23.298;2023-03-19T09:00:14;14.00;;;10.70;;
6095;SDS011;25081;42.698;23.298;2023-03-19T09:02:26;13.70;;;11.10;;
6095;SDS011;25081;42.698;23.298;2023-03-19T09:04:38;13.27;;;10.83;;
6095;SDS011;25081;42.698;23.298;2023-03-19T09:06:49;15.40;;;10.50;;
6095;SDS011;25081;42.698;23.298;2023-03-19T09:08:59;14.10;;;10.60;;
6095;SDS011;25081;42.698;23.298;2023-03-19T09:11:10;12.20;;;9.63;;
6095;SDS011;25081;42.698;23.298;2023-03-19T09:13:20;13.77;;;9.97;;
6095;SDS011;25081;42.698;23.298;2023-03-19T09:15:31;13.60;;;9.40;;
6095;SDS011;25081;42.698;23.298;2023-03-19T09:17:41;14.70;;;10.67;;
6095;SDS011;25081;42.698;23.298;2023-03-19T09:19:52;16.87;;;10.57;;
6095;SDS011;25081;42.698;23.298;2023-03-19T09:22:02;26.27;;;11.77;;
6095;SDS011;25081;42.698;23.298;2023-03-19T09:24:13;13.23;;;10.30;;
6095;SDS011;25081;42.698;23.298;2023-03-19T09:26:24;16.43;;;10.30;;
6095;SDS011;25081;42.698;23.298;2023-03-19T09:28:34;9.97;;;8.77;;
6095;SDS011;25081;42.698;23.298;2023-03-19T09:30:45;11.10;;;8.87;;
6095;SDS011;25081;42.698;23.298;2023-03-19T09:32:55;13.00;;;9.70;;
6095;SDS011;25081;42.698;23.298;2023-03-19T09:35:07;11.63;;;10.43;;
6095;SDS011;25081;42.698;23.298;2023-03-19T09:37:18;13.13;;;11.37;;
6095;SDS011;25081;42.698;23.298;2023-03-19T09:39:28;14.63;;;12.37;;
6095;SDS011;25081;42.698;23.298;2023-03-19T09:41:42;15.73;;;11.00;;
6095;SDS011;25081;42.698;23.298;2023-03-19T09:44:00;14.10;;;11.97;;
6095;SDS011;25081;42.698;23.298;2023-03-19T09:46:12;15.23;;;10.53;;
6095;SDS011;25081;42.698;23.298;2023-03-19T09:48:23;14.40;;;11.37;;
6095;SDS011;25081;42.698;23.298;2023-03-19T09:50:33;14.80;;;11.57;;
6095;SDS011;25081;42.698;23.298;2023-03-19T09:52:45;17.40;;;11.20;;
6095;SDS011;25081;42.698;23.298;2023-03-19T09:54:55;16.20;;;11.43;;
6095;SDS011;25081;42.698;23.298;2023-03-19T09:57:07;14.57;;;11.97;;
6095;SDS011;25081;42.698;23.298;2023-03-19T09:59:18;14.20;;;10.80;;
6095;SDS011;25081;42.698;23.298;2023-03-19T10:01:29;12.50;;;9.70;;
6095;SDS011;25081;42.698;23.298;2023-03-19T10:03:42;15.67;;;9.10;;
6095;SDS011;25081;42.698;23.298;2023-03-19T10:05:53;11.63;;;10.17;;
6095;SDS011;25081;42.698;23.298;2023-03-19T10:08:10;11.73;;;9.23;;
6095;SDS011;25081;42.698;23.298;2023-03-19T10:10:26;12.10;;;9.80;;
6095;SDS011;25081;42.698;23.298;2023-03-19T10:12:41;12.50;;;10.13;;
6095;SDS011;25081;42.698;23.298;2023-03-19T10:15:00;11.17;;;9.10;;
6095;SDS011;25081;42.698;23.298;2023-03-19T10:17:15;14.00;;;9.03;;
6095;SDS011;25081;42.698;23.298;2023-03-19T10:19:28;12.23;;;8.50;;
6095;SDS011;25081;42.698;23.298;2023-03-19T10:21:37;15.37;;;10.83;;
6095;SDS011;25081;42.698;23.298;2023-03-19T10:23:48;10.20;;;8.37;;
6095;SDS011;25081;42.698;23.298;2023-03-19T10:25:59;8.13;;;7.10;;
6095;SDS011;25081;42.698;23.298;2023-03-19T10:28:11;11.30;;;8.57;;
6095;SDS011;25081;42.698;23.298;2023-03-19T10:30:22;11.30;;;8.80;;
6095;SDS011;25081;42.698;23.298;2023-03-19T10:32:35;11.23;;;8.30;;
6095;SDS011;25081;42.698;23.298;2023-03-19T10:34:44;9.40;;;7.87;;
6095;SDS011;25081;42.698;23.298;2023-03-19T10:36:58;8.70;;;7.40;;
6095;SDS011;25081;42.698;23.298;2023-03-19T10:39:09;13.20;;;8.47;;
6095;SDS011;25081;42.698;23.298;2023-03-19T10:41:22;10.20;;;8.30;;
6095;SDS011;25081;42.698;23.298;2023-03-19T10:43:36;10.13;;;8.37;;
6095;SDS011;25081;42.698;23.298;2023-03-19T10:45:47;11.63;;;9.10;;
6095;SDS011;25081;42.698;23.298;2023-03-19T10:47:58;10.20;;;8.30;;
6095;SDS011;25081;42.698;23.298;2023-03-19T10:50:10;13.17;;;8.90;;
6095;SDS011;25081;42.698;23.298;2023-03-19T10:52:26;15.83;;;8.73;;
6095;SDS011;25081;42.698;23.298;2023-03-19T10:54:34;10.50;;;7.53;;
6095;SDS011;25081;42.698;23.298;2023-03-19T10:56:45;10.97;;;8.00;;
6095;SDS011;25081;42.698;23.298;2023-03-19T10:58:56;10.03;;;7.43;;
6095;SDS011;25081;42.698;23.298;2023-03-19T11:01:08;12.80;;;7.03;;
6095;SDS011;25081;42.698;23.298;2023-03-19T11:03:28;9.33;;;7.60;;
6095;SDS011;25081;42.698;23.298;2023-03-19T11:05:38;9.40;;;7.50;;
6095;SDS011;25081;42.698;23.298;2023-03-19T11:07:48;10.33;;;7.67;;
6095;SDS011;25081;42.698;23.298;2023-03-19T11:09:59;9.48;;;7.62;;
6095;SDS011;25081;42.698;23.298;2023-03-19T11:12:14;11.70;;;7.63;;
6095;SDS011;25081;42.698;23.298;2023-03-19T11:14:29;10.20;;;6.85;;
6095;SDS011;25081;42.698;23.298;2023-03-19T11:16:53;8.97;;;6.50;;
6095;SDS011;25081;42.698;23.298;2023-03-19T11:19:10;10.10;;;6.90;;
6095;SDS011;25081;42.698;23.298;2023-03-19T11:21:27;10.10;;;7.17;;
6095;SDS011;25081;42.698;23.298;2023-03-19T11:23:40;10.10;;;7.00;;
6095;SDS011;25081;42.698;23.298;2023-03-19T11:25:51;11.27;;;7.80;;
6095;SDS011;25081;42.698;23.298;2023-03-19T11:28:04;9.47;;;6.90;;
6095;SDS011;25081;42.698;23.298;2023-03-19T11:30:15;12.73;;;7.05;;
6095;SDS011;25081;42.698;23.298;2023-03-19T11:32:32;18.83;;;7.40;;
6095;SDS011;25081;42.698;23.298;2023-03-19T11:35:07;10.30;;;7.77;;
6095;SDS011;25081;42.698;23.298;2023-03-19T11:39:51;10.60;;;7.03;;
6095;SDS011;25081;42.698;23.298;2023-03-19T11:42:09;12.20;;;7.73;;
6095;SDS011;25081;42.698;23.298;2023-03-19T11:44:29;12.33;;;7.50;;
6095;SDS011;25081;42.698;23.298;2023-03-19T11:46:41;9.03;;;7.30;;
6095;SDS011;25081;42.698;23.298;2023-03-19T11:49:00;9.97;;;7.40;;
6095;SDS011;25081;42.698;23.298;2023-03-19T11:51:21;9.60;;;7.20;;
6095;SDS011;25081;42.698;23.298;2023-03-19T11:53:33;9.90;;;6.63;;
6095;SDS011;25081;42.698;23.298;2023-03-19T11:55:42;8.70;;;6.80;;
6095;SDS011;25081;42.698;23.298;2023-03-19T11:58:00;14.20;;;7.90;;
6095;SDS011;25081;42.698;23.298;2023-03-19T12:00:14;9.87;;;7.30;;
6095;SDS011;25081;42.698;23.298;2023-03-19T12:02:35;14.17;;;8.30;;
6095;SDS011;25081;42.698;23.298;2023-03-19T12:05:00;10.17;;;7.60;;
6095;SDS011;25081;42.698;23.298;2023-03-19T12:07:15;10.20;;;7.70;;
6095;SDS011;25081;42.698;23.298;2023-03-19T12:09:26;9.90;;;7.97;;
6095;SDS011;25081;42.698;23.298;2023-03-19T12:11:38;12.87;;;8.00;;
6095;SDS011;25081;42.698;23.298;2023-03-19T12:13:52;13.10;;;7.50;;
6095;SDS011;25081;42.698;23.298;2023-03-19T12:16:10;13.13;;;7.13;;
6095;SDS011;25081;42.698;23.298;2023-03-19T12:18:36;15.30;;;7.00;;
6095;SDS011;25081;42.698;23.298;2023-03-19T12:20:35;11.30;;;7.73;;
6095;SDS011;25081;42.698;23.298;2023-03-19T12:22:53;19.63;;;7.63;;
6095;SDS011;25081;42.698;23.298;2023-03-19T12:25:14;12.07;;;7.83;;
6095;SDS011;25081;42.698;23.298;2023-03-19T12:27:31;11.13;;;8.20;;
6095;SDS011;25081;42.698;23.298;2023-03-19T12:29:43;10.30;;;7.77;;
6095;SDS011;25081;42.698;23.298;2023-03-19T12:32:02;10.10;;;5.87;;
6095;SDS011;25081;42.698;23.298;2023-03-19T12:34:20;12.90;;;7.77;;
6095;SDS011;25081;42.698;23.298;2023-03-19T12:36:32;11.27;;;8.17;;
6095;SDS011;25081;42.698;23.298;2023-03-19T12:38:42;10.27;;;6.20;;
6095;SDS011;25081;42.698;23.298;2023-03-19T12:40:54;9.70;;;7.20;;
6095;SDS011;25081;42.698;23.298;2023-03-19T12:43:05;14.87;;;7.17;;
6095;SDS011;25081;42.698;23.298;2023-03-19T12:45:18;13.00;;;7.80;;
6095;SDS011;25081;42.698;23.298;2023-03-19T12:47:30;9.40;;;6.90;;
6095;SDS011;25081;42.698;23.298;2023-03-19T12:49:40;8.50;;;6.80;;
6095;SDS011;25081;42.698;23.298;2023-03-19T12:51:50;9.90;;;6.37;;
6095;SDS011;25081;42.698;23.298;2023-03-19T12:54:01;12.20;;;6.07;;